Terminal Aerodrome Forecast
Issued by NWS

Home | Current Version | Previous Version | Text Only | Print | Product List | Glossary On
Versions: 1 2 3 4 5 6 7 8 9 10 11 12 13 14 15 16 17 18 19 20 21 22 23 24 25 26 27 28 29
000
FTUS42 KMHX 281700
TAFPGV
TAF
KPGV 281733Z 2818/2918 25008KT P6SM SCT025 BKN040
      TEMPO 2821/2823 OVC020
     FM290000 27002KT P6SM VCSH OVC020
     FM290500 27002KT 5SM BR VCSH OVC008
     FM290600 34002KT 2SM -RA BR OVC004
     FM291200 05005KT 2SM -RA BR OVC008
      AMD LTD TO CLD VIS AND WIND=

USA.gov is the U.S. government's official web portal to all federal, state and local government web resources and services.